createdAt,value
2023-04-09T00:01:05.439Z,39.38
2023-04-09T00:03:32.608Z,45.47
2023-04-09T00:05:59.986Z,41.05
2023-04-09T00:08:27.156Z,41.10
2023-04-09T00:10:54.427Z,44.63
2023-04-09T00:13:35.425Z,37.30
2023-04-09T00:16:06.185Z,38.65
2023-04-09T00:18:33.383Z,42.05
2023-04-09T00:21:00.627Z,41.00
2023-04-09T00:23:27.821Z,43.50
2023-04-09T00:25:54.932Z,44.88
2023-04-09T00:28:22.067Z,42.38
2023-04-09T00:30:49.226Z,45.28
2023-04-09T00:33:16.335Z,39.92
2023-04-09T00:35:43.580Z,41.92
2023-04-09T00:38:11.045Z,44.90
2023-04-09T00:40:38.129Z,38.95
2023-04-09T00:43:05.704Z,40.50
2023-04-09T00:45:33.330Z,36.83
2023-04-09T00:48:00.540Z,40.17
2023-04-09T00:50:27.790Z,38.33
2023-04-09T00:52:55.188Z,41.30
2023-04-09T00:55:23.135Z,43.92
2023-04-09T00:57:50.287Z,41.30
2023-04-09T01:00:17.546Z,39.33
2023-04-09T01:02:45.343Z,43.88
2023-04-09T01:05:13.377Z,41.00
2023-04-09T01:07:40.753Z,34.95
2023-04-09T01:10:17.029Z,42.67
2023-04-09T01:13:13.672Z,42.13
2023-04-09T01:15:45.104Z,42.85
2023-04-09T01:18:16.447Z,42.35
2023-04-09T01:20:44.474Z,38.50
2023-04-09T01:23:11.605Z,39.58
2023-04-09T01:25:46.210Z,39.47
2023-04-09T01:28:17.268Z,39.10
2023-04-09T01:30:49.625Z,40.72
2023-04-09T01:33:19.056Z,38.03
2023-04-09T01:35:50.431Z,42.08
2023-04-09T01:38:19.159Z,44.08
2023-04-09T01:40:46.608Z,38.50
2023-04-09T01:43:14.888Z,37.50
2023-04-09T01:45:42.520Z,39.10
2023-04-09T01:48:10.355Z,40.70
2023-04-09T01:50:38.093Z,44.78
2023-04-09T01:53:05.284Z,46.60
2023-04-09T01:55:32.585Z,44.83
2023-04-09T01:57:59.750Z,42.97
2023-04-09T02:00:30.948Z,39.83
2023-04-09T02:03:04.313Z,43.22
2023-04-09T02:05:36.277Z,40.08
2023-04-09T02:08:04.272Z,44.35
2023-04-09T02:10:32.370Z,44.60
2023-04-09T02:13:01.089Z,40.22
2023-04-09T02:15:29.262Z,42.28
2023-04-09T02:17:56.462Z,40.55
2023-04-09T02:20:24.727Z,40.63
2023-04-09T02:22:51.830Z,41.92
2023-04-09T02:25:18.983Z,40.80
2023-04-09T02:27:46.130Z,40.83
2023-04-09T02:30:13.357Z,40.35
2023-04-09T02:32:40.559Z,41.53
2023-04-09T02:35:08.276Z,42.45
2023-04-09T02:37:35.675Z,41.70
2023-04-09T02:40:03.239Z,41.67
2023-04-09T02:42:30.354Z,41.47
2023-04-09T02:44:57.463Z,43.13
2023-04-09T02:47:27.135Z,42.85
2023-04-09T02:49:54.258Z,38.75
2023-04-09T02:52:24.286Z,41.25
2023-04-09T02:54:51.459Z,41.58
2023-04-09T02:57:18.816Z,38.33
2023-04-09T02:59:46.388Z,42.38
2023-04-09T03:02:13.899Z,37.08
2023-04-09T03:04:41.144Z,44.03
2023-04-09T03:07:08.326Z,40.33
2023-04-09T03:09:35.599Z,44.63
2023-04-09T03:12:03.015Z,42.47
2023-04-09T03:14:30.266Z,44.42
2023-04-09T03:16:57.396Z,42.17
2023-04-09T03:19:24.543Z,41.63
2023-04-09T03:21:51.715Z,38.88
2023-04-09T03:24:23.068Z,38.58
2023-04-09T03:26:51.286Z,41.67
2023-04-09T03:29:18.557Z,44.17
2023-04-09T03:31:45.678Z,40.72
2023-04-09T03:34:12.832Z,48.10
2023-04-09T03:36:39.959Z,37.97
2023-04-09T03:39:22.653Z,38.03
2023-04-09T03:41:49.833Z,38.40
2023-04-09T03:44:18.574Z,40.10
2023-04-09T03:46:56.354Z,38.60
2023-04-09T03:49:24.300Z,37.28
2023-04-09T03:51:52.168Z,38.33
2023-04-09T03:54:19.789Z,39.35
2023-04-09T03:56:47.152Z,37.30
2023-04-09T03:59:16.337Z,34.83
2023-04-09T04:01:48.024Z,34.95
2023-04-09T04:04:15.785Z,37.33
2023-04-09T04:06:53.541Z,39.20
2023-04-09T04:09:28.194Z,36.75
2023-04-09T04:11:58.985Z,34.90
2023-04-09T04:14:39.479Z,40.60
2023-04-09T04:17:17.288Z,36.55
2023-04-09T04:19:44.778Z,35.47
2023-04-09T04:22:11.929Z,33.38
2023-04-09T04:24:42.617Z,33.97
2023-04-09T04:27:09.856Z,36.80
2023-04-09T04:29:37.656Z,35.83
2023-04-09T04:32:11.820Z,36.38
2023-04-09T04:34:39.291Z,36.60
2023-04-09T04:37:16.463Z,38.15
2023-04-09T04:39:43.859Z,37.72
2023-04-09T04:42:15.297Z,36.83
2023-04-09T04:44:42.683Z,35.15
2023-04-09T04:47:29.791Z,34.03
2023-04-09T04:49:58.691Z,35.58
2023-04-09T04:52:26.313Z,33.22
2023-04-09T04:54:54.708Z,35.38
2023-04-09T04:57:24.087Z,32.55
2023-04-09T04:59:51.469Z,37.25
2023-04-09T05:02:19.622Z,38.88
2023-04-09T05:05:15.408Z,33.25
2023-04-09T05:07:48.654Z,34.25
2023-04-09T05:10:15.867Z,37.35
2023-04-09T05:12:43.890Z,33.95
2023-04-09T05:15:13.224Z,34.58
2023-04-09T05:17:43.123Z,33.35
2023-04-09T05:20:11.189Z,39.03
2023-04-09T05:22:47.815Z,38.03
2023-04-09T05:25:16.213Z,37.88
2023-04-09T05:27:43.798Z,33.78
2023-04-09T05:30:11.092Z,33.92
2023-04-09T05:32:39.190Z,34.95
2023-04-09T05:35:06.474Z,32.63
2023-04-09T05:37:38.898Z,39.55
2023-04-09T05:40:07.065Z,32.67
2023-04-09T05:42:34.227Z,36.95
2023-04-09T05:45:11.011Z,39.05
2023-04-09T05:47:45.123Z,39.78
2023-04-09T05:50:17.835Z,34.38
2023-04-09T05:52:45.158Z,40.80
2023-04-09T05:55:14.278Z,40.65
2023-04-09T05:57:49.120Z,44.45
2023-04-09T06:00:18.237Z,47.05
2023-04-09T06:02:46.696Z,43.72
2023-04-09T06:05:14.084Z,44.45
2023-04-09T06:07:41.283Z,43.67
2023-04-09T06:10:08.745Z,46.58
2023-04-09T06:12:36.277Z,45.20
2023-04-09T06:15:05.400Z,41.80
2023-04-09T06:17:33.244Z,41.58
2023-04-09T06:20:00.459Z,42.22
2023-04-09T06:22:27.551Z,36.70
2023-04-09T06:24:54.645Z,44.15
2023-04-09T06:27:22.128Z,44.60
2023-04-09T06:29:49.294Z,45.08
2023-04-09T06:32:16.483Z,43.47
2023-04-09T06:34:43.684Z,39.10
2023-04-09T06:37:10.791Z,40.53
2023-04-09T06:39:40.404Z,40.40
2023-04-09T06:42:09.641Z,43.50
2023-04-09T06:44:50.564Z,38.97
2023-04-09T06:47:17.796Z,39.05
2023-04-09T06:49:44.930Z,40.03
2023-04-09T06:52:12.069Z,43.65
2023-04-09T06:54:39.165Z,39.33
2023-04-09T06:57:07.461Z,40.03
2023-04-09T06:59:34.555Z,33.75
2023-04-09T07:02:01.736Z,36.88
2023-04-09T07:04:29.056Z,36.63
2023-04-09T07:06:59.084Z,37.45
2023-04-09T07:09:26.176Z,31.45
2023-04-09T07:11:53.294Z,31.13
2023-04-09T07:14:20.450Z,34.47
2023-04-09T07:16:47.578Z,33.38
2023-04-09T07:19:14.772Z,32.28
2023-04-09T07:21:42.313Z,34.53
2023-04-09T07:24:09.439Z,30.27
2023-04-09T07:26:36.565Z,32.58
2023-04-09T07:29:04.396Z,30.60
2023-04-09T07:31:32.805Z,36.72
2023-04-09T07:34:01.374Z,30.73
2023-04-09T07:36:28.958Z,31.42
2023-04-09T07:38:56.181Z,29.65
2023-04-09T07:41:23.409Z,33.92
2023-04-09T07:43:50.680Z,28.58
2023-04-09T07:46:24.088Z,31.77
2023-04-09T07:48:51.863Z,32.30
2023-04-09T07:51:19.461Z,32.40
2023-04-09T07:53:46.786Z,30.20
2023-04-09T07:56:14.201Z,33.15
2023-04-09T07:58:41.435Z,26.90
2023-04-09T08:01:09.302Z,30.10
2023-04-09T08:03:36.833Z,27.08
2023-04-09T08:06:04.384Z,29.13
2023-04-09T08:08:31.468Z,27.42
2023-04-09T08:10:58.604Z,27.55
2023-04-09T08:13:25.770Z,27.58
2023-04-09T08:15:53.009Z,29.58
2023-04-09T08:18:20.159Z,29.33
2023-04-09T08:20:47.400Z,29.30
2023-04-09T08:23:14.566Z,28.20
2023-04-09T08:25:41.687Z,27.98
2023-04-09T08:28:08.946Z,31.33
2023-04-09T08:30:36.348Z,29.15
2023-04-09T08:33:03.554Z,28.85
2023-04-09T08:35:31.134Z,30.10
2023-04-09T08:37:58.490Z,31.13
2023-04-09T08:40:25.773Z,29.48
2023-04-09T08:42:58.066Z,35.10
2023-04-09T08:45:25.805Z,31.05
2023-04-09T08:47:53.204Z,34.35
2023-04-09T08:50:20.648Z,28.48
2023-04-09T08:52:49.669Z,31.23
2023-04-09T08:55:16.819Z,30.10
2023-04-09T08:57:43.944Z,31.42
2023-04-09T09:00:11.416Z,30.70
2023-04-09T09:02:39.459Z,32.72
2023-04-09T09:05:07.273Z,32.80
2023-04-09T09:07:34.517Z,33.30
2023-04-09T09:10:04.352Z,34.78
2023-04-09T09:12:38.907Z,34.90
2023-04-09T09:15:07.482Z,32.88
2023-04-09T09:17:35.286Z,36.13
2023-04-09T09:20:19.383Z,34.35
2023-04-09T09:22:54.857Z,36.00
2023-04-09T09:25:26.251Z,37.10
2023-04-09T09:27:54.426Z,36.75
2023-04-09T09:30:22.793Z,36.38
2023-04-09T09:32:53.668Z,34.08
2023-04-09T09:35:21.195Z,36.03
2023-04-09T09:37:48.331Z,38.33
2023-04-09T09:40:27.843Z,35.35
2023-04-09T09:42:56.282Z,37.95
2023-04-09T09:45:24.881Z,39.65
2023-04-09T09:47:54.027Z,38.95
2023-04-09T09:50:23.989Z,35.92
2023-04-09T09:52:51.673Z,36.63
2023-04-09T09:55:19.182Z,33.35
2023-04-09T09:57:47.798Z,36.58
2023-04-09T10:00:16.912Z,34.45
2023-04-09T10:02:49.273Z,34.20
2023-04-09T10:05:16.472Z,33.35
2023-04-09T10:07:44.921Z,34.10
2023-04-09T10:10:12.124Z,33.58
2023-04-09T10:12:41.760Z,33.10
2023-04-09T10:15:10.025Z,32.08
2023-04-09T10:17:38.632Z,35.35
2023-04-09T10:20:12.046Z,30.45
2023-04-09T10:22:39.553Z,36.55
2023-04-09T10:25:06.951Z,33.30
2023-04-09T10:27:34.135Z,32.03
2023-04-09T10:30:02.219Z,32.05
2023-04-09T10:32:36.071Z,32.38
2023-04-09T10:35:04.160Z,36.58
2023-04-09T10:37:31.784Z,30.13
2023-04-09T10:39:59.048Z,28.08
2023-04-09T10:42:43.191Z,28.02
2023-04-09T10:45:14.725Z,31.25
2023-04-09T10:47:50.110Z,28.33
2023-04-09T10:50:25.672Z,27.10
2023-04-09T10:52:53.919Z,29.00
2023-04-09T10:55:41.561Z,28.33
2023-04-09T10:58:13.669Z,28.10
2023-04-09T11:00:44.799Z,26.00
2023-04-09T11:03:38.205Z,27.08
2023-04-09T11:06:09.190Z,26.02
2023-04-09T11:08:37.915Z,27.92
2023-04-09T11:11:05.916Z,26.75
2023-04-09T11:13:34.151Z,27.10
2023-04-09T11:16:03.941Z,29.23
2023-04-09T11:18:31.245Z,27.67
2023-04-09T11:20:59.485Z,27.27
2023-04-09T11:23:26.992Z,24.42
2023-04-09T11:25:54.840Z,23.80
2023-04-09T11:28:22.153Z,24.10
2023-04-09T11:30:51.373Z,22.92
2023-04-09T11:33:20.285Z,22.98
2023-04-09T11:35:48.216Z,20.23
2023-04-09T11:38:15.750Z,18.30
2023-04-09T11:40:48.094Z,18.60
2023-04-09T11:45:48.429Z,19.08
2023-04-09T11:48:18.193Z,19.10
2023-04-09T11:50:45.729Z,18.67
2023-04-09T11:53:16.776Z,17.95
2023-04-09T11:55:44.264Z,17.17
2023-04-09T11:58:11.594Z,17.52
2023-04-09T12:00:40.965Z,17.25
2023-04-09T12:03:08.483Z,18.27
2023-04-09T12:05:37.120Z,17.33
2023-04-09T12:08:07.981Z,17.63
2023-04-09T12:10:36.255Z,17.60
2023-04-09T12:13:04.364Z,17.17
2023-04-09T12:15:35.920Z,18.13
2023-04-09T12:18:03.717Z,17.10
2023-04-09T12:20:36.193Z,17.92
2023-04-09T12:23:04.814Z,17.50
2023-04-09T12:25:32.574Z,18.90
2023-04-09T12:27:59.941Z,16.42
2023-04-09T12:30:27.100Z,17.50
2023-04-09T12:32:54.911Z,16.13
2023-04-09T12:35:22.675Z,14.18
2023-04-09T12:37:50.195Z,17.00
2023-04-09T12:40:17.713Z,15.88
2023-04-09T12:42:46.221Z,16.25
2023-04-09T12:45:15.433Z,16.15
2023-04-09T12:47:42.881Z,15.90
2023-04-09T12:50:10.735Z,14.40
2023-04-09T12:52:38.166Z,17.00
2023-04-09T12:55:06.179Z,15.45
2023-04-09T12:57:33.374Z,17.45
2023-04-09T13:00:00.768Z,16.95
2023-04-09T13:02:28.183Z,16.98
2023-04-09T13:04:55.456Z,16.25
2023-04-09T13:07:22.807Z,16.58
2023-04-09T13:09:50.433Z,15.68
2023-04-09T13:12:17.778Z,16.27
2023-04-09T13:14:46.755Z,15.05
2023-04-09T13:17:14.097Z,15.93
2023-04-09T13:19:42.701Z,17.70
2023-04-09T13:22:10.558Z,18.70
2023-04-09T13:24:38.119Z,17.33
2023-04-09T13:27:06.126Z,18.73
2023-04-09T13:29:33.307Z,17.80
2023-04-09T13:32:05.759Z,19.02
2023-04-09T13:34:33.987Z,15.73
2023-04-09T13:37:01.586Z,17.33
2023-04-09T13:39:28.808Z,16.58
2023-04-09T13:41:56.246Z,16.52
2023-04-09T13:44:24.033Z,15.35
2023-04-09T13:46:51.373Z,16.77
2023-04-09T13:49:18.478Z,17.42
2023-04-09T13:51:45.856Z,16.80
2023-04-09T13:54:13.134Z,18.00
2023-04-09T13:56:41.179Z,17.27
2023-04-09T13:59:08.364Z,16.67
2023-04-09T14:01:35.737Z,17.58
2023-04-09T14:04:03.126Z,17.40
2023-04-09T14:06:31.289Z,16.10
2023-04-09T14:08:58.403Z,16.65
2023-04-09T14:11:25.500Z,16.17
2023-04-09T14:13:53.101Z,15.30
2023-04-09T14:16:20.758Z,17.70
2023-04-09T14:18:47.994Z,15.77
2023-04-09T14:21:15.463Z,17.92
2023-04-09T14:23:42.711Z,14.75
2023-04-09T14:26:09.857Z,16.70
2023-04-09T14:28:37.899Z,16.08
2023-04-09T14:31:05.213Z,18.88
2023-04-09T14:33:32.390Z,14.85
2023-04-09T14:35:59.595Z,16.45
2023-04-09T14:38:26.930Z,13.27
2023-04-09T14:40:54.130Z,20.52
2023-04-09T14:43:21.250Z,14.57
2023-04-09T14:45:48.441Z,14.60
2023-04-09T14:48:15.677Z,16.38
2023-04-09T14:50:43.077Z,15.05
2023-04-09T14:53:10.278Z,17.42
2023-04-09T14:55:37.435Z,16.35
2023-04-09T14:58:07.188Z,15.38
2023-04-09T15:00:34.495Z,15.90
2023-04-09T15:03:01.962Z,15.77
2023-04-09T15:05:29.314Z,16.88
2023-04-09T15:07:56.435Z,16.85
2023-04-09T15:10:23.654Z,16.15
2023-04-09T15:12:50.770Z,17.77
2023-04-09T15:15:17.984Z,17.20
2023-04-09T15:17:45.209Z,15.85
2023-04-09T15:20:13.840Z,16.38
2023-04-09T15:22:41.169Z,17.30
2023-04-09T15:25:08.500Z,17.63
2023-04-09T15:27:35.841Z,17.33
2023-04-09T15:30:03.138Z,15.30
2023-04-09T15:32:31.107Z,16.55
2023-04-09T15:34:58.989Z,18.02
2023-04-09T15:37:26.116Z,17.70
2023-04-09T15:39:53.207Z,16.05
2023-04-09T15:42:22.696Z,16.13
2023-04-09T15:44:50.387Z,15.60
2023-04-09T15:47:17.643Z,15.90
2023-04-09T15:49:45.040Z,17.63
2023-04-09T15:52:12.228Z,15.30
2023-04-09T15:54:39.341Z,18.50
2023-04-09T15:57:06.446Z,16.05
2023-04-09T15:59:33.598Z,14.90
2023-04-09T16:02:00.829Z,17.80
2023-04-09T16:04:28.141Z,14.75
2023-04-09T16:06:56.299Z,13.95
2023-04-09T16:09:23.989Z,15.20
2023-04-09T16:11:51.592Z,14.20
2023-04-09T16:14:18.839Z,17.88
2023-04-09T16:16:49.965Z,16.25
2023-04-09T16:19:17.846Z,15.73
2023-04-09T16:21:45.503Z,14.82
2023-04-09T16:24:12.996Z,15.98
2023-04-09T16:26:41.049Z,16.05
2023-04-09T16:29:08.480Z,14.63
2023-04-09T16:31:35.954Z,15.82
2023-04-09T16:34:03.140Z,15.82
2023-04-09T16:36:31.491Z,16.88
2023-04-09T16:38:58.677Z,14.82
2023-04-09T16:41:25.861Z,16.50
2023-04-09T16:43:53.300Z,14.70
2023-04-09T16:46:20.517Z,14.50
2023-04-09T16:48:47.722Z,15.05
2023-04-09T16:51:14.867Z,16.27
2023-04-09T16:53:42.015Z,15.75
2023-04-09T16:56:09.439Z,14.98
2023-04-09T16:58:36.538Z,14.55
2023-04-09T17:01:03.942Z,17.42
2023-04-09T17:03:31.267Z,14.48
2023-04-09T17:05:58.569Z,16.88
2023-04-09T17:08:25.691Z,17.58
2023-04-09T17:10:54.703Z,17.55
2023-04-09T17:13:21.928Z,14.82
2023-04-09T17:15:49.063Z,17.90
2023-04-09T17:18:16.452Z,15.70
2023-04-09T17:20:43.876Z,16.17
2023-04-09T17:23:11.329Z,17.30
2023-04-09T17:25:38.546Z,15.70
2023-04-09T17:28:05.975Z,15.82
2023-04-09T17:30:33.300Z,15.38
2023-04-09T17:33:00.686Z,14.10
2023-04-09T17:35:27.879Z,14.45
2023-04-09T17:37:55.870Z,14.70
2023-04-09T17:40:23.127Z,15.02
2023-04-09T17:42:50.376Z,16.75
2023-04-09T17:45:17.563Z,13.77
2023-04-09T17:47:45.638Z,15.00
2023-04-09T17:50:12.889Z,15.27
2023-04-09T17:52:40.684Z,16.23
2023-04-09T17:55:08.761Z,15.80
2023-04-09T17:57:35.972Z,16.95
2023-04-09T18:00:04.119Z,15.95
2023-04-09T18:02:31.953Z,16.00
2023-04-09T18:05:04.595Z,16.42
2023-04-09T18:07:33.982Z,13.93
2023-04-09T18:10:01.720Z,13.85
2023-04-09T18:12:28.908Z,16.77
2023-04-09T18:14:56.081Z,16.10
2023-04-09T18:17:23.481Z,15.02
2023-04-09T18:19:50.766Z,15.23
2023-04-09T18:22:17.919Z,16.73
2023-04-09T18:24:45.094Z,17.35
2023-04-09T18:27:12.218Z,17.33
2023-04-09T18:29:39.381Z,15.88
2023-04-09T18:32:06.576Z,17.30
2023-04-09T18:34:33.748Z,17.80
2023-04-09T18:37:01.399Z,17.77
2023-04-09T18:39:30.720Z,19.52
2023-04-09T18:41:57.872Z,17.00
2023-04-09T18:44:25.073Z,17.88
2023-04-09T18:46:52.336Z,17.98
2023-04-09T18:49:19.575Z,18.20
2023-04-09T18:51:47.341Z,18.20
2023-04-09T18:54:14.460Z,19.88
2023-04-09T18:56:41.624Z,20.17
2023-04-09T18:59:08.769Z,18.75
2023-04-09T19:01:36.150Z,18.45
2023-04-09T19:04:03.325Z,16.67
2023-04-09T19:06:30.553Z,17.67
2023-04-09T19:08:58.898Z,19.77
2023-04-09T19:11:26.414Z,16.92
2023-04-09T19:13:53.612Z,19.23
2023-04-09T19:16:21.521Z,20.27
2023-04-09T19:18:48.884Z,20.73
2023-04-09T19:21:17.818Z,22.20
2023-04-09T19:23:45.635Z,19.52
2023-04-09T19:26:12.886Z,19.45
2023-04-09T19:28:40.033Z,17.90
2023-04-09T19:31:09.256Z,20.15
2023-04-09T19:33:36.510Z,22.17
2023-04-09T19:36:04.175Z,20.38
2023-04-09T19:38:31.351Z,20.08
2023-04-09T19:40:58.500Z,22.65
2023-04-09T19:43:25.705Z,17.40
2023-04-09T19:45:52.795Z,19.40
2023-04-09T19:48:19.995Z,18.65
2023-04-09T19:50:48.325Z,20.65
2023-04-09T19:53:15.786Z,19.27
2023-04-09T19:55:42.912Z,18.58
2023-04-09T19:58:10.020Z,18.73
2023-04-09T20:00:37.323Z,18.95
2023-04-09T20:03:07.046Z,20.92
2023-04-09T20:05:34.415Z,20.92
2023-04-09T20:08:01.601Z,20.23
2023-04-09T20:10:28.790Z,21.02
2023-04-09T20:12:56.084Z,25.95
2023-04-09T20:15:23.293Z,27.55
2023-04-09T20:17:51.221Z,24.67
2023-04-09T20:20:19.845Z,26.15
2023-04-09T20:22:55.621Z,24.30
2023-04-09T20:25:23.522Z,23.10
2023-04-09T20:27:52.799Z,23.75
2023-04-09T20:30:20.017Z,23.25
2023-04-09T20:32:48.901Z,26.25
2023-04-09T20:35:16.365Z,22.33
2023-04-09T20:37:44.106Z,23.98
2023-04-09T20:40:14.504Z,23.23
2023-04-09T20:42:42.002Z,23.10
2023-04-09T20:45:09.566Z,23.77
2023-04-09T20:47:36.869Z,19.13
2023-04-09T20:50:04.938Z,21.92
2023-04-09T20:52:32.324Z,21.60
2023-04-09T20:55:00.866Z,21.63
2023-04-09T20:57:28.161Z,27.05
2023-04-09T20:59:55.231Z,26.42
2023-04-09T21:02:22.820Z,29.38
2023-04-09T21:04:50.038Z,25.60
2023-04-09T21:07:17.231Z,25.10
2023-04-09T21:09:44.394Z,24.83
2023-04-09T21:12:11.490Z,21.75
2023-04-09T21:14:38.629Z,24.50
2023-04-09T21:17:05.840Z,21.52
2023-04-09T21:19:33.149Z,21.95
2023-04-09T21:22:00.331Z,23.70
2023-04-09T21:24:27.750Z,23.13
2023-04-09T21:26:55.457Z,22.13
2023-04-09T21:29:22.578Z,25.27
2023-04-09T21:31:49.979Z,22.52
2023-04-09T21:34:17.198Z,25.75
2023-04-09T21:36:45.534Z,22.05
2023-04-09T21:39:12.897Z,24.45
2023-04-09T21:41:40.147Z,25.55
2023-04-09T21:44:10.048Z,25.27
2023-04-09T21:46:37.528Z,20.60
2023-04-09T21:49:05.003Z,22.50
2023-04-09T21:51:32.550Z,22.02
2023-04-09T21:54:06.269Z,23.83
2023-04-09T21:56:34.013Z,23.52
2023-04-09T21:59:01.184Z,26.08
2023-04-09T22:01:30.555Z,27.67
2023-04-09T22:03:59.030Z,26.20
2023-04-09T22:06:29.558Z,25.80
2023-04-09T22:08:57.838Z,27.10
2023-04-09T22:11:27.522Z,30.02
2023-04-09T22:13:55.922Z,27.65
2023-04-09T22:16:23.564Z,28.40
2023-04-09T22:18:51.503Z,26.95
2023-04-09T22:21:18.956Z,26.58
2023-04-09T22:23:46.089Z,27.70
2023-04-09T22:26:13.216Z,26.50
2023-04-09T22:28:40.410Z,26.73
2023-04-09T22:31:07.626Z,28.00
2023-04-09T22:33:34.798Z,27.63
2023-04-09T22:36:02.019Z,29.20
2023-04-09T22:38:29.264Z,29.25
2023-04-09T22:40:56.343Z,28.77
2023-04-09T22:43:23.472Z,28.00
2023-04-09T22:45:54.538Z,25.88
2023-04-09T22:48:22.990Z,26.58
2023-04-09T22:50:50.854Z,25.95
2023-04-09T22:53:21.777Z,23.67
2023-04-09T22:55:54.505Z,26.17
2023-04-09T22:58:21.727Z,24.85
2023-04-09T23:00:49.622Z,28.27
2023-04-09T23:03:17.215Z,25.08
2023-04-09T23:05:44.473Z,25.83
2023-04-09T23:08:12.031Z,27.05
2023-04-09T23:10:39.210Z,24.33
2023-04-09T23:13:06.463Z,29.17
2023-04-09T23:15:33.679Z,29.65
2023-04-09T23:18:00.934Z,25.63
2023-04-09T23:20:28.118Z,26.63
2023-04-09T23:22:55.259Z,29.83
2023-04-09T23:25:22.886Z,27.98
2023-04-09T23:27:50.217Z,27.02
2023-04-09T23:30:18.045Z,29.95
2023-04-09T23:32:45.772Z,25.48
2023-04-09T23:35:13.132Z,28.20
2023-04-09T23:37:40.904Z,29.52
2023-04-09T23:40:08.392Z,28.88
2023-04-09T23:42:35.952Z,28.33
2023-04-09T23:45:04.359Z,28.63
2023-04-09T23:47:36.385Z,23.77
2023-04-09T23:50:04.968Z,24.98
2023-04-09T23:52:37.010Z,27.27
2023-04-09T23:55:04.688Z,30.08
2023-04-09T23:57:31.885Z,27.17
2023-04-09T23:59:59.017Z,26.02
